ロンドン/ヒースロー の空港の天気 - METARとTAF

ロンドン・ヒースロー空港 ( EGLL / LHR ) - イギリス ロンドン
飛行場実況気象(Metar)
観測時間09/27 23:50 BST (09/27 22:50 UTC)
風向・風速西北西 3m/s
視程10km以上
天気現象
なし
気温8℃
湿度87%
気圧1000hPa
METAREGLL 272250Z AUTO 29005KT 9999 NCD 08/06 Q1000 NOSIG
過去の天気等 Google飛行場航空写真 Wunderground天気予報

過去48時間のMETAR

飛行場予報(TAF)
発表時間: 9/27 17:58 BST (9/27 16:58 UTC)
予報対象時間: 27日19時 BST ~ 29日1時 BST
風向・風速西北西 4m/s
視程10km以上
全天の4割程度の雲 雲底高度 1220m
27日19時 BST ~ 27日23時 BST に 確率 30% で一時的に
視程9000m
天気現象しゅう雨
28日5時 BST ~ 28日10時 BST に 確率 30% で一時的に
全天の8割程度の雲 雲底高度 180m
28日23時 BST ~ 29日1時 BST に 確率 30% で一時的に
視程9000m
天気現象弱い雨
TAF EGLL 271658Z 2718/2824 29007KT 9999 SCT040
PROB30 TEMPO 2718/2722 9000 SHRA
PROB30 TEMPO 2804/2809 BKN006
PROB30 TEMPO 2822/2824 9000 -RA